Time;durP1;ratioP1;P1;durP2;ratioP2;P2;SDS_P1;SDS_P2;PMS_P1;PMS_P2;Temp;Humidity;BMP_temperature;BMP_pressure;BME280_temperature;BME280_humidity;BME280_pressure;Samples;Min_cycle;Max_cycle;Signal;HPM_P1;HPM_P2
2022/10/28 00:01:21;;;;;;;57.72;16.70;;;;;;;16.89;78.60;99356.81;5258146;27;20475;-86
2022/10/28 00:03:52;;;;;;;249.82;25.58;;;;;;;16.98;77.82;99360.75;5258161;27;20058;-86
2022/10/28 00:06:23;;;;;;;132.63;21.77;;;;;;;16.79;78.57;99358.19;5276700;27;20054;-86
2022/10/28 00:08:50;;;;;;;122.82;19.20;;;;;;;17.21;78.00;99362.25;5277375;27;20048;-86
2022/10/28 00:11:22;;;;;;;213.02;24.83;;;;;;;17.73;75.83;99370.13;5277151;27;20139;-86
2022/10/28 00:13:52;;;;;;;178.18;23.15;;;;;;;16.84;78.76;99360.59;5277042;27;20405;-86
2022/10/28 00:16:21;;;;;;;131.87;19.60;;;;;;;16.21;82.54;99366.03;5276935;27;20102;-86
2022/10/28 00:18:51;;;;;;;147.40;22.17;;;;;;;16.35;81.49;99365.41;5277304;27;20396;-86
2022/10/28 00:21:26;;;;;;;178.68;23.00;;;;;;;16.47;80.49;99357.88;5276830;27;20454;-86
2022/10/28 00:23:53;;;;;;;188.15;24.77;;;;;;;16.37;81.70;99360.97;5277310;27;20111;-85
2022/10/28 00:26:22;;;;;;;113.22;21.25;;;;;;;15.85;84.70;99355.50;5257779;27;20067;-85
2022/10/28 00:29:00;;;;;;;184.55;25.15;;;;;;;16.18;83.12;99354.03;5276777;27;20064;-86
2022/10/28 00:31:27;;;;;;;;;;;;;;;16.91;80.44;99356.78;5277811;26;20061;-86
2022/10/28 00:33:54;;;;;;;232.87;23.52;;;;;;;16.64;80.73;99346.69;5257677;27;20838;-86
2022/10/28 00:36:27;;;;;;;131.15;18.62;;;;;;;17.32;77.71;99350.38;5276951;27;20131;-86
2022/10/28 00:38:55;;;;;;;217.10;23.75;;;;;;;17.62;75.90;99350.59;5277086;27;20103;-86
2022/10/28 00:41:27;;;;;;;225.40;24.65;;;;;;;17.15;77.64;99347.75;5276721;27;20123;-86
2022/10/28 00:43:58;;;;;;;179.73;22.77;;;;;;;17.23;77.20;99347.41;5277205;27;20099;-86
2022/10/28 00:46:37;;;;;;;170.32;21.42;;;;;;;17.06;78.35;99351.66;5277045;27;20053;-86
2022/10/28 00:49:29;;;;;;;74.00;17.02;;;;;;;17.44;75.77;99351.56;5276719;27;20046;-86
2022/10/28 00:52:03;;;;;;;147.65;20.85;;;;;;;16.92;78.83;99353.25;5257869;27;20061;-86
2022/10/28 00:54:30;;;;;;;214.88;23.55;;;;;;;16.68;78.69;99345.66;5278530;27;20138;-86
2022/10/28 00:56:58;;;;;;;214.68;24.30;;;;;;;16.85;77.69;99352.69;5258837;27;20747;-86
2022/10/28 00:59:28;;;;;;;108.85;19.73;;;;;;;16.86;77.83;99343.09;5258262;27;20046;-86
2022/10/28 01:01:55;;;;;;;188.20;23.23;;;;;;;16.28;80.92;99343.19;5257818;27;20088;-86
2022/10/28 01:04:23;;;;;;;332.42;29.20;;;;;;;15.79;83.71;99345.34;5277911;27;20057;-86
2022/10/28 01:06:50;;;;;;;177.18;23.42;;;;;;;15.00;86.57;99342.53;5278045;27;20053;-86
2022/10/28 01:09:17;;;;;;;188.73;24.40;;;;;;;15.09;87.74;99337.84;5258407;27;20045;-86
2022/10/28 01:11:51;;;;;;;193.45;24.10;;;;;;;15.02;86.96;99335.53;5278054;27;20062;-86
2022/10/28 01:14:20;;;;;;;212.00;25.55;;;;;;;15.91;83.29;99334.41;5278032;27;20429;-85
2022/10/28 01:16:53;;;;;;;162.43;23.48;;;;;;;17.03;78.95;99333.56;5277546;27;20050;-86
2022/10/28 01:19:26;;;;;;;247.60;25.40;;;;;;;16.88;78.51;99338.66;5278021;27;20049;-86
2022/10/28 01:22:30;;;;;;;169.82;21.95;;;;;;;16.74;79.72;99336.72;5278057;27;20072;-86
2022/10/28 01:25:07;;;;;;;;;;;;;;;15.31;84.89;99336.06;5277897;27;20390;-86
2022/10/28 01:28:02;;;;;;;204.70;23.60;;;;;;;16.37;81.85;99335.78;5278063;27;19964;-87
2022/10/28 01:30:56;;;;;;;267.23;25.23;;;;;;;17.44;76.89;99338.50;5277640;27;20095;-87
2022/10/28 01:33:26;;;;;;;134.32;18.58;;;;;;;16.88;79.14;99333.44;5278103;27;20072;-87
2022/10/28 01:36:05;;;;;;;92.32;18.42;;;;;;;16.46;80.12;99334.50;5277774;27;20684;-86
2022/10/28 01:38:40;;;;;;;159.35;18.50;;;;;;;16.53;81.91;99333.31;5258271;27;20388;-86
2022/10/28 01:41:42;;;;;;;92.18;17.52;;;;;;;16.01;83.33;99329.63;5278049;27;20056;-86
2022/10/28 01:44:21;;;;;;;179.10;21.95;;;;;;;16.59;80.13;99333.06;5200103;27;20133;-86
2022/10/28 01:47:13;;;;;;;104.10;17.35;;;;;;;16.73;79.75;99335.88;5277952;27;20660;-86
2022/10/28 01:50:10;;;;;;;99.62;17.75;;;;;;;16.47;80.50;99328.38;5258615;27;20053;-86
2022/10/28 01:52:39;;;;;;;120.75;17.27;;;;;;;16.99;78.08;99333.75;5277340;27;20052;-87
2022/10/28 01:55:15;;;;;;;121.05;19.23;;;;;;;17.09;77.21;99336.78;5258377;27;20065;-86
2022/10/28 01:57:42;;;;;;;154.12;19.12;;;;;;;16.25;84.50;99332.88;5258653;26;20061;-87
2022/10/28 02:00:10;;;;;;;271.62;25.35;;;;;;;16.31;80.65;99330.87;5258415;26;20067;-87
2022/10/28 02:02:37;;;;;;;92.37;17.50;;;;;;;16.46;79.25;99327.53;5258649;27;20064;-87
2022/10/28 02:05:33;;;;;;;110.00;18.17;;;;;;;14.72;87.88;99328.94;5258046;27;20405;-86
2022/10/28 02:08:14;;;;;;;167.75;20.10;;;;;;;14.62;89.49;99328.44;5266358;27;20053;-86
2022/10/28 02:10:50;;;;;;;100.97;16.85;;;;;;;14.99;88.31;99325.25;5277574;26;20059;-86
2022/10/28 02:13:18;;;;;;;216.02;22.25;;;;;;;14.73;87.92;99328.88;5277108;27;20042;-87
2022/10/28 02:16:11;;;;;;;260.60;25.25;;;;;;;14.67;90.91;99325.66;5277467;27;20066;-87
2022/10/28 02:19:16;;;;;;;234.68;21.17;;;;;;;15.11;87.19;99321.31;5258487;27;20075;-87
2022/10/28 02:22:07;;;;;;;160.75;19.20;;;;;;;16.32;81.99;99322.13;5259900;27;20061;-87
2022/10/28 02:25:08;;;;;;;84.72;16.75;;;;;;;16.32;80.86;99316.09;5258398;27;20415;-86
2022/10/28 02:27:44;;;;;;;163.50;21.37;;;;;;;16.75;78.39;99314.94;5258216;27;20065;-87
2022/10/28 02:30:16;;;;;;;123.93;18.17;;;;;;;16.19;80.77;99319.25;5277849;27;20499;-87
2022/10/28 02:32:46;;;;;;;179.87;19.85;;;;;;;15.64;83.05;99317.41;5258709;27;20053;-87
2022/10/28 02:35:19;;;;;;;176.43;20.10;;;;;;;16.26;81.02;99314.59;5257928;27;20412;-87
2022/10/28 02:37:47;;;;;;;144.93;17.92;;;;;;;16.61;78.81;99310.38;5258297;27;20400;-87
2022/10/28 02:40:19;;;;;;;305.62;24.02;;;;;;;15.74;81.76;99316.09;5258136;27;20057;-86
2022/10/28 02:42:50;;;;;;;245.95;21.42;;;;;;;16.22;80.18;99310.44;5258591;27;20053;-87
2022/10/28 02:45:21;;;;;;;250.65;21.98;;;;;;;16.57;79.32;99307.97;5277601;27;20050;-87
2022/10/28 02:47:53;;;;;;;114.03;16.23;;;;;;;16.52;77.98;99304.75;5277309;27;20077;-87
2022/10/28 02:50:25;;;;;;;264.42;21.60;;;;;;;16.61;77.61;99304.31;5258570;27;20065;-87
2022/10/28 02:52:55;;;;;;;134.32;17.65;;;;;;;16.50;78.64;99297.00;5277717;27;20049;-87
2022/10/28 02:55:23;;;;;;;84.28;15.80;;;;;;;17.07;74.87;99305.56;5257894;27;20046;-87
2022/10/28 02:57:50;;;;;;;82.43;16.75;;;;;;;16.69;76.76;99299.59;5258216;27;20080;-87
2022/10/28 03:00:21;;;;;;;48.17;13.23;;;;;;;15.58;80.56;99298.50;5277825;27;20065;-87
2022/10/28 03:02:48;;;;;;;149.38;18.75;;;;;;;17.34;72.97;99301.59;5277402;27;20049;-87
2022/10/28 03:05:15;;;;;;;158.00;19.37;;;;;;;16.90;75.48;99301.16;5277555;27;20049;-87
2022/10/28 03:07:42;;;;;;;129.20;17.87;;;;;;;16.79;75.76;99303.44;5277617;27;20057;-87
2022/10/28 03:10:09;;;;;;;191.07;19.85;;;;;;;15.64;80.12;99307.84;5277121;27;20072;-87
2022/10/28 03:12:35;;;;;;;112.20;16.15;;;;;;;16.83;74.97;99312.81;5277665;27;20129;-87
2022/10/28 03:15:03;;;;;;;175.02;17.98;;;;;;;17.06;73.85;99307.31;5277261;27;20061;-86
2022/10/28 03:17:30;;;;;;;34.72;9.93;;;;;;;17.12;72.61;99310.53;5277627;27;20061;-87
2022/10/28 03:19:57;;;;;;;195.25;17.60;;;;;;;17.01;73.15;99301.50;5277585;27;20115;-87
2022/10/28 03:22:24;;;;;;;155.35;16.45;;;;;;;17.00;73.19;99301.56;5277258;27;20053;-87
2022/10/28 03:24:50;;;;;;;240.62;19.42;;;;;;;17.32;72.66;99315.63;5277361;27;20412;-87
2022/10/28 03:27:17;;;;;;;178.15;17.50;;;;;;;17.46;71.92;99313.19;5277767;26;20118;-87
2022/10/28 03:29:44;;;;;;;263.73;19.90;;;;;;;16.81;73.82;99306.84;5277087;27;20099;-87
2022/10/28 03:32:12;;;;;;;53.58;13.25;;;;;;;16.52;76.15;99308.19;5277558;27;20045;-87
2022/10/28 03:34:39;;;;;;;184.77;18.15;;;;;;;16.46;75.72;99306.69;5277506;27;20072;-87
2022/10/28 03:37:06;;;;;;;141.73;17.55;;;;;;;16.57;76.60;99306.19;5277141;26;20112;-87
2022/10/28 03:39:33;;;;;;;145.52;15.07;;;;;;;17.58;71.81;99298.66;5277428;27;20066;-87
2022/10/28 03:41:59;;;;;;;49.60;11.63;;;;;;;17.56;71.08;99301.34;5277614;27;20063;-87
2022/10/28 03:44:26;;;;;;;111.82;17.10;;;;;;;16.42;76.71;99297.34;5277145;27;20332;-87
2022/10/28 03:46:53;;;;;;;177.18;17.58;;;;;;;16.34;76.19;99294.25;5277414;27;20506;-87
2022/10/28 03:49:20;;;;;;;190.07;17.75;;;;;;;16.75;75.04;99294.94;5277459;27;20068;-87
2022/10/28 03:51:47;;;;;;;110.15;15.02;;;;;;;17.45;72.48;99293.22;5277223;27;20064;-87
2022/10/28 03:54:14;;;;;;;143.20;15.60;;;;;;;17.60;72.00;99297.66;5277317;27;20060;-86
2022/10/28 03:56:41;;;;;;;50.50;10.73;;;;;;;17.31;72.28;99295.66;5277382;27;20147;-87
2022/10/28 03:59:08;;;;;;;132.23;12.95;;;;;;;17.63;71.45;99299.25;5276949;27;20080;-87
2022/10/28 04:01:35;;;;;;;79.45;12.20;;;;;;;16.91;73.43;99305.47;5277411;27;20053;-87
2022/10/28 04:04:02;;;;;;;102.25;13.70;;;;;;;16.94;73.56;99294.06;5277393;27;20042;-86
2022/10/28 04:06:29;;;;;;;123.80;14.43;;;;;;;16.24;76.90;99287.78;5277088;27;20132;-87
2022/10/28 04:08:56;;;;;;;227.87;18.12;;;;;;;16.27;76.63;99297.19;5277324;27;20061;-87
2022/10/28 04:11:23;;;;;;;171.87;17.08;;;;;;;15.96;78.12;99296.00;5276773;27;20102;-87
2022/10/28 04:13:50;;;;;;;177.25;17.35;;;;;;;15.88;77.84;99292.91;5277330;27;20053;-87
2022/10/28 04:16:17;;;;;;;117.15;14.23;;;;;;;16.55;76.59;99294.16;5277054;27;20122;-87
2022/10/28 04:18:43;;;;;;;161.05;16.42;;;;;;;16.99;74.08;99305.94;5276806;27;20062;-87
2022/10/28 04:21:10;;;;;;;219.13;18.02;;;;;;;17.88;69.92;99301.47;5277277;27;20050;-87
2022/10/28 04:23:37;;;;;;;106.03;12.90;;;;;;;17.28;72.51;99293.22;5277297;27;20041;-87
2022/10/28 04:26:04;;;;;;;43.10;10.05;;;;;;;17.45;71.94;99295.00;5276562;27;20062;-87
2022/10/28 04:28:31;;;;;;;115.37;14.02;;;;;;;16.72;74.54;99289.03;5277325;26;20408;-87
2022/10/28 04:30:58;;;;;;;102.85;13.45;;;;;;;16.49;75.73;99287.50;5258679;26;20101;-86
2022/10/28 04:33:25;;;;;;;95.45;14.13;;;;;;;16.10;76.87;99282.38;5276997;27;20056;-86
2022/10/28 04:35:52;;;;;;;124.72;13.43;;;;;;;16.76;74.88;99293.16;5276997;27;20073;-85
2022/10/28 04:38:19;;;;;;;114.22;13.60;;;;;;;17.13;73.56;99297.44;5278043;27;20065;-86
2022/10/28 04:40:47;;;;;;;153.07;14.32;;;;;;;16.37;75.62;99283.69;5277893;27;20522;-86
2022/10/28 04:43:15;;;;;;;61.92;11.27;;;;;;;17.19;73.53;99301.50;5259118;27;20294;-86
2022/10/28 04:45:42;;;;;;;191.80;17.62;;;;;;;17.83;70.46;99286.03;5278008;27;20065;-86
2022/10/28 04:48:09;;;;;;;144.10;14.25;;;;;;;18.34;68.29;99286.78;5277896;26;20065;-86
2022/10/28 04:50:36;;;;;;;190.10;14.75;;;;;;;18.47;67.78;99290.41;5278282;27;20396;-86
2022/10/28 04:53:03;;;;;;;53.80;10.52;;;;;;;18.16;69.10;99282.53;5278157;26;20461;-86
2022/10/28 04:55:30;;;;;;;160.57;15.75;;;;;;;18.55;67.58;99276.06;5277665;27;20058;-85
2022/10/28 04:57:59;;;;;;;248.50;17.33;;;;;;;18.19;68.91;99282.41;5277847;27;20065;-85
2022/10/28 05:00:27;;;;;;;203.65;16.12;;;;;;;17.88;69.46;99275.38;5277936;26;20049;-85
2022/10/28 05:02:54;;;;;;;163.85;13.70;;;;;;;18.18;68.98;99273.72;5278173;26;20052;-85
2022/10/28 05:05:22;;;;;;;144.48;12.50;;;;;;;18.73;66.17;99278.53;5277952;27;20066;-85
2022/10/28 05:07:49;;;;;;;144.37;12.80;;;;;;;19.08;64.48;99270.44;5277767;27;20430;-85
2022/10/28 05:10:16;;;;;;;123.85;11.65;;;;;;;19.04;64.51;99277.63;5258478;27;20049;-85
2022/10/28 05:12:47;;;;;;;119.95;11.18;;;;;;;17.82;68.44;99276.53;5278101;27;20056;-85
2022/10/28 05:15:14;;;;;;;158.02;11.68;;;;;;;18.59;66.45;99275.78;5277785;27;20079;-85
2022/10/28 05:17:45;;;;;;;240.27;14.07;;;;;;;18.09;68.40;99286.44;5277820;27;20061;-85
2022/10/28 05:20:14;;;;;;;158.95;13.77;;;;;;;17.54;70.62;99286.66;5258916;26;20054;-85
2022/10/28 05:22:53;;;;;;;231.82;15.90;;;;;;;18.56;66.74;99275.97;5258469;26;20050;-85
2022/10/28 05:25:21;;;;;;;132.00;12.45;;;;;;;17.96;69.57;99282.78;5258965;26;20081;-85
2022/10/28 05:27:49;;;;;;;187.23;12.50;;;;;;;18.82;66.07;99274.56;5278823;26;20065;-86
2022/10/28 05:30:16;;;;;;;117.87;11.27;;;;;;;17.73;69.86;99290.06;5240981;27;20114;-83
2022/10/28 05:32:43;;;;;;;157.27;13.52;;;;;;;18.14;68.34;99284.41;5260681;27;20041;-83
2022/10/28 05:35:16;;;;;;;153.18;12.32;;;;;;;18.34;67.33;99294.63;5282675;26;20061;-85
2022/10/28 05:37:43;;;;;;;87.97;10.57;;;;;;;18.27;68.30;99284.56;5278469;26;20052;-85
2022/10/28 05:40:10;;;;;;;124.00;11.95;;;;;;;18.65;66.57;99288.56;5277913;27;20102;-85
2022/10/28 05:42:41;;;;;;;111.45;10.93;;;;;;;17.67;70.25;99287.75;5277580;27;20068;-85
2022/10/28 05:45:09;;;;;;;145.07;11.55;;;;;;;18.06;69.47;99281.34;5258563;27;20432;-85
2022/10/28 05:47:36;;;;;;;178.43;12.23;;;;;;;17.93;69.35;99287.22;5277554;27;20517;-86
2022/10/28 05:50:06;;;;;;;148.48;12.40;;;;;;;18.02;69.92;99288.53;5258747;27;20072;-86
2022/10/28 05:52:33;;;;;;;145.70;11.43;;;;;;;17.85;70.49;99296.38;5278498;27;20053;-84
2022/10/28 05:54:59;;;;;;;103.70;11.32;;;;;;;18.07;69.59;99291.72;5278034;27;20067;-83
2022/10/28 05:57:26;;;;;;;107.60;10.02;;;;;;;18.15;69.51;99299.16;5278738;27;20438;-84
2022/10/28 05:59:53;;;;;;;157.30;12.70;;;;;;;17.22;73.27;99294.34;5278674;27;20685;-84
2022/10/28 06:02:20;;;;;;;159.55;12.23;;;;;;;17.31;72.51;99300.87;5278017;27;20046;-84
2022/10/28 06:04:47;;;;;;;51.15;7.53;;;;;;;17.73;71.81;99295.28;5277626;26;20065;-84
2022/10/28 06:07:14;;;;;;;213.55;14.82;;;;;;;17.71;72.19;99297.13;5278165;27;20061;-84
2022/10/28 06:09:41;;;;;;;151.45;11.40;;;;;;;17.31;74.12;99298.28;5277515;27;20442;-84
2022/10/28 06:12:08;;;;;;;130.87;12.85;;;;;;;17.67;72.25;99290.34;5277521;27;20060;-84
2022/10/28 06:14:34;;;;;;;99.35;9.80;;;;;;;17.73;72.63;99308.31;5277778;27;20116;-84
2022/10/28 06:17:01;;;;;;;77.80;9.90;;;;;;;17.24;73.82;99305.59;5277957;27;20072;-80
2022/10/28 06:19:28;;;;;;;130.73;11.12;;;;;;;17.92;71.08;99301.22;5277403;27;20064;-81
2022/10/28 06:21:55;;;;;;;145.32;10.85;;;;;;;17.96;71.29;99301.88;5277850;27;20061;-81
2022/10/28 06:24:22;;;;;;;121.85;11.85;;;;;;;17.37;73.43;99304.97;5277744;27;20062;-80
2022/10/28 06:26:49;;;;;;;81.12;9.60;;;;;;;17.01;75.04;99301.50;5277852;27;20076;-82
2022/10/28 06:29:16;;;;;;;75.90;7.93;;;;;;;16.10;78.46;99311.00;5277744;27;20057;-82
2022/10/28 06:31:43;;;;;;;111.43;9.73;;;;;;;16.83;77.38;99310.22;5277434;27;20041;-82
2022/10/28 06:34:10;;;;;;;36.63;6.65;;;;;;;17.29;75.89;99319.22;5278251;27;20072;-85
2022/10/28 06:36:37;;;;;;;35.03;5.97;;;;;;;17.19;76.05;99311.94;5277666;27;20122;-86
2022/10/28 06:39:05;;;;;;;146.35;11.30;;;;;;;18.00;71.98;99313.03;5277322;27;20057;-85
2022/10/28 06:41:32;;;;;;;198.35;12.68;;;;;;;18.11;70.89;99314.16;5258579;27;20056;-86
2022/10/28 06:43:58;;;;;;;171.30;12.43;;;;;;;17.84;72.85;99320.81;5277810;27;20412;-85
2022/10/28 06:46:26;;;;;;;208.18;12.63;;;;;;;18.10;71.82;99322.91;5277259;27;20061;-86
2022/10/28 06:48:53;;;;;;;228.60;13.32;;;;;;;17.83;72.65;99319.12;5277714;27;20060;-85
2022/10/28 06:51:20;;;;;;;74.10;7.55;;;;;;;17.83;74.10;99321.75;5277968;26;20046;-85
2022/10/28 06:53:51;;;;;;;132.63;10.55;;;;;;;17.99;71.99;99332.25;5277317;27;20107;-85
2022/10/28 06:56:18;;;;;;;219.55;13.52;;;;;;;18.24;70.98;99332.63;5277453;27;20072;-84
2022/10/28 06:58:52;;;;;;;190.88;12.57;;;;;;;18.22;71.87;99334.47;5277399;27;20053;-84
2022/10/28 07:01:19;;;;;;;235.23;13.68;;;;;;;18.54;70.42;99332.72;5277367;27;20050;-84
2022/10/28 07:03:47;;;;;;;67.50;6.87;;;;;;;18.66;69.83;99337.31;5277753;27;20073;-84
2022/10/28 07:06:16;;;;;;;101.28;8.95;;;;;;;18.90;69.04;99337.69;5277659;27;20396;-84
2022/10/28 07:08:43;;;;;;;164.85;11.55;;;;;;;17.18;76.25;99341.53;5272165;27;140117;-83
2022/10/28 07:11:10;;;;;;;194.65;10.57;;;;;;;18.33;71.49;99349.56;5277540;26;20099;-83
2022/10/28 07:13:37;;;;;;;184.13;12.05;;;;;;;17.77;73.29;99342.97;5277197;27;20372;-84
2022/10/28 07:16:04;;;;;;;168.30;12.57;;;;;;;18.07;73.20;99348.31;5277539;27;20475;-84
2022/10/28 07:18:31;;;;;;;128.27;9.65;;;;;;;18.21;71.49;99343.25;5277458;27;20060;-84
2022/10/28 07:20:59;;;;;;;64.30;7.07;;;;;;;18.82;69.18;99349.50;5277426;27;20052;-84
2022/10/28 07:23:27;;;;;;;97.60;9.43;;;;;;;17.89;72.74;99350.16;5277589;27;20057;-84
2022/10/28 07:25:55;;;;;;;111.10;9.55;;;;;;;18.29;72.25;99341.06;5277421;27;20130;-84
2022/10/28 07:28:23;;;;;;;175.05;10.45;;;;;;;19.18;68.41;99350.06;5277411;26;20112;-85
2022/10/28 07:30:50;;;;;;;122.70;10.43;;;;;;;17.65;74.52;99346.97;5277519;27;20095;-85
2022/10/28 07:33:17;;;;;;;84.68;9.13;;;;;;;18.56;71.57;99351.78;5278431;27;20062;-84
2022/10/28 07:35:44;;;;;;;111.95;9.05;;;;;;;18.94;69.98;99357.53;5257740;27;20455;-84
2022/10/28 07:38:11;;;;;;;131.23;9.65;;;;;;;19.11;69.58;99350.50;5277401;27;20049;-84
2022/10/28 07:40:38;;;;;;;39.17;6.45;;;;;;;18.93;69.41;99350.63;5277531;27;20321;-84
2022/10/28 07:43:04;;;;;;;114.35;9.75;;;;;;;17.70;74.04;99346.78;5277494;27;20080;-82
2022/10/28 07:45:33;;;;;;;101.22;8.73;;;;;;;18.18;72.42;99341.62;5277402;27;20061;-83
2022/10/28 07:48:00;;;;;;;45.33;8.52;;;;;;;18.14;73.19;99344.47;5258192;27;20139;-83
2022/10/28 07:50:27;;;;;;;145.32;12.02;;;;;;;19.06;69.36;99338.53;5277291;27;20061;-83
2022/10/28 07:52:54;;;;;;;108.87;9.15;;;;;;;18.60;72.24;99342.00;5277364;27;20084;-83
2022/10/28 07:55:21;;;;;;;73.30;8.90;;;;;;;18.84;70.06;99335.44;5277245;27;20065;-83
2022/10/28 07:57:49;;;;;;;40.58;6.40;;;;;;;19.10;69.60;99341.81;5257883;27;20053;-83
2022/10/28 08:00:16;;;;;;;128.27;10.35;;;;;;;18.71;71.27;99343.09;5258253;27;20050;-83
2022/10/28 08:02:43;;;;;;;108.78;9.38;;;;;;;18.75;71.91;99338.56;5277263;27;20069;-83
2022/10/28 08:05:10;;;;;;;73.32;7.97;;;;;;;17.60;76.66;99347.22;5277341;27;20134;-83
2022/10/28 08:07:37;;;;;;;135.15;10.43;;;;;;;18.60;72.74;99342.00;5277153;27;20063;-82
2022/10/28 08:10:05;;;;;;;45.80;7.28;;;;;;;17.92;75.64;99345.59;5276755;26;20416;-83
2022/10/28 08:12:32;;;;;;;116.72;10.80;;;;;;;17.66;76.60;99343.47;5278002;27;20058;-82
2022/10/28 08:14:59;;;;;;;131.80;10.40;;;;;;;17.90;75.91;99342.25;5278091;27;20126;-82
2022/10/28 08:17:26;;;;;;;148.27;11.18;;;;;;;17.99;75.11;99335.69;5258792;27;20058;-84
2022/10/28 08:19:53;;;;;;;68.93;8.32;;;;;;;18.26;75.59;99341.22;5258850;27;20041;-84
2022/10/28 08:22:20;;;;;;;116.10;9.38;;;;;;;18.53;73.32;99338.87;5278175;27;20159;-83
2022/10/28 08:24:47;;;;;;;110.88;10.00;;;;;;;18.82;71.99;99333.81;5278400;27;20080;-84
2022/10/28 08:27:14;;;;;;;81.70;9.63;;;;;;;18.57;73.22;99329.94;5259956;27;20049;-84
2022/10/28 08:29:40;;;;;;;110.43;10.13;;;;;;;18.96;71.94;99331.31;5278428;27;20563;-84
2022/10/28 08:32:08;;;;;;;70.60;7.80;;;;;;;18.41;73.96;99339.56;5278017;27;20062;-85
2022/10/28 08:34:35;;;;;;;25.35;7.05;;;;;;;18.47;72.79;99345.28;5278575;27;20056;-86
2022/10/28 08:37:08;;;;;;;71.18;9.63;;;;;;;18.52;73.32;99345.03;5278192;27;20105;-85
2022/10/28 08:39:35;;;;;;;40.55;8.32;;;;;;;18.87;72.45;99343.13;5277601;27;20324;-84
2022/10/28 08:42:16;;;;;;;91.93;9.13;;;;;;;18.80;72.92;99341.75;5278181;27;20404;-83
2022/10/28 08:45:03;;;;;;;60.10;8.98;;;;;;;18.67;73.23;99359.06;5278408;27;20053;-83
2022/10/28 08:47:42;;;;;;;41.97;8.23;;;;;;;19.41;70.77;99353.13;5284929;27;20691;-84
2022/10/28 08:50:17;;;;;;;53.85;8.50;;;;;;;19.63;69.52;99359.66;5285438;27;20136;-84
2022/10/28 08:53:00;;;;;;;59.67;8.55;;;;;;;18.34;73.53;99357.31;5267204;27;20065;-84
2022/10/28 08:55:32;;;;;;;64.05;8.63;;;;;;;19.03;72.06;99351.81;5286605;27;20033;-83
2022/10/28 08:58:06;;;;;;;26.62;7.55;;;;;;;19.50;69.22;99352.59;5269275;27;20030;-83
2022/10/28 09:00:34;;;;;;;52.33;8.50;;;;;;;19.08;70.58;99352.38;5266926;27;20041;-83
2022/10/28 09:03:21;;;;;;;37.58;8.05;;;;;;;19.53;68.62;99355.88;5270407;27;20026;-84
2022/10/28 09:06:00;;;;;;;29.92;8.50;;;;;;;19.61;69.63;99360.69;5276473;27;20034;-83
2022/10/28 09:08:28;;;;;;;38.90;7.90;;;;;;;19.80;69.05;99353.44;5276426;27;20022;-84
2022/10/28 09:11:04;;;;;;;31.55;7.85;;;;;;;18.17;73.94;99366.03;5291596;27;20030;-84
2022/10/28 09:13:46;;;;;;;46.00;8.93;;;;;;;18.84;73.80;99364.22;5293244;27;20029;-84
2022/10/28 09:16:33;;;;;;;43.80;8.40;;;;;;;19.59;69.96;99355.56;5292249;27;20034;-83
2022/10/28 09:19:35;;;;;;;50.47;8.18;;;;;;;19.95;67.39;99359.53;5291914;27;20037;-84
2022/10/28 09:22:21;;;;;;;51.35;8.65;;;;;;;19.11;71.29;99360.97;5283610;27;20042;-83
2022/10/28 09:24:55;;;;;;;22.87;7.28;;;;;;;19.72;69.90;99355.66;5281838;27;20069;-83
2022/10/28 09:27:41;;;;;;;21.52;7.68;;;;;;;18.96;71.87;99354.84;5289451;27;20068;-83
2022/10/28 09:30:28;;;;;;;26.45;7.93;;;;;;;19.78;68.56;99359.69;5292283;27;20061;-83
2022/10/28 09:33:04;;;;;;;32.00;8.00;;;;;;;20.17;67.44;99361.69;5271229;27;20033;-84
2022/10/28 09:35:37;;;;;;;20.77;7.95;;;;;;;19.56;69.75;99352.25;5262276;27;20142;-85
2022/10/28 09:38:25;;;;;;;27.15;8.90;;;;;;;19.65;68.34;99349.09;5283617;27;20044;-87
2022/10/28 09:41:03;;;;;;;29.90;8.77;;;;;;;19.52;69.56;99359.44;5284837;27;20704;-86
2022/10/28 09:43:36;;;;;;;37.13;8.65;;;;;;;19.57;70.06;99365.28;5261754;27;20102;-86
2022/10/28 09:46:11;;;;;;;35.10;8.10;;;;;;;20.82;64.89;99364.62;5284721;27;20026;-86
2022/10/28 09:48:43;;;;;;;42.78;8.00;;;;;;;19.56;70.27;99360.94;5264705;27;20072;-85
2022/10/28 09:51:34;;;;;;;23.25;7.18;;;;;;;19.73;69.49;99353.87;5268061;27;20036;-86
2022/10/28 09:54:01;;;;;;;17.15;6.32;;;;;;;19.13;72.72;99348.62;5292063;27;20618;-85
2022/10/28 09:56:29;;;;;;;31.52;8.95;;;;;;;18.91;73.29;99339.38;5286793;27;20041;-85
2022/10/28 09:59:01;;;;;;;31.42;7.30;;;;;;;19.23;71.96;99340.16;5284517;27;20036;-87
2022/10/28 10:01:32;;;;;;;19.10;7.40;;;;;;;19.10;72.68;99341.81;5269460;27;20073;-87
2022/10/28 10:03:59;;;;;;;19.37;8.20;;;;;;;19.70;71.89;99347.06;5271341;27;20032;-86
2022/10/28 10:06:28;;;;;;;21.90;8.05;;;;;;;19.23;74.17;99337.56;5269586;27;20716;-86
2022/10/28 10:08:55;;;;;;;19.35;6.65;;;;;;;19.63;71.92;99345.75;5288021;27;20033;-86
2022/10/28 10:11:32;;;;;;;13.62;5.97;;;;;;;19.30;72.29;99345.91;5286413;27;20432;-86
2022/10/28 10:14:04;;;;;;;23.00;7.25;;;;;;;19.94;69.66;99350.00;5266750;27;20032;-86
2022/10/28 10:16:41;;;;;;;16.67;7.60;;;;;;;19.32;72.38;99349.28;5266786;27;20033;-86
2022/10/28 10:19:08;;;;;;;;;;;;;;;19.56;71.87;99341.78;5269224;26;20062;-86
2022/10/28 10:21:44;;;;;;;19.17;8.05;;;;;;;20.39;68.85;99343.69;5289107;27;19944;-86
2022/10/28 10:24:31;;;;;;;19.65;8.55;;;;;;;20.54;68.19;99343.72;5287307;27;20091;-86
2022/10/28 10:27:20;;;;;;;17.17;7.93;;;;;;;20.62;67.96;99334.41;5290288;27;20033;-85
2022/10/28 10:29:48;;;;;;;16.67;8.48;;;;;;;20.61;67.77;99340.59;5289633;27;20139;-83
2022/10/28 10:32:21;;;;;;;18.50;8.90;;;;;;;19.89;71.01;99341.56;5287418;27;20033;-82
2022/10/28 10:35:21;;;;;;;18.42;8.85;;;;;;;20.69;69.84;99329.63;5274768;27;20036;-83
2022/10/28 10:37:49;;;;;;;18.42;8.20;;;;;;;20.76;69.48;99329.16;5283554;27;20033;-83
2022/10/28 10:40:23;;;;;;;19.27;8.55;;;;;;;19.47;72.80;99316.16;5264337;27;20034;-83
2022/10/28 10:42:51;;;;;;;17.83;9.27;;;;;;;20.45;70.67;99321.53;5279593;27;20106;-83
2022/10/28 10:45:37;;;;;;;15.93;8.05;;;;;;;20.81;68.51;99315.72;5282423;27;20046;-78
2022/10/28 10:48:14;;;;;;;17.52;9.55;;;;;;;20.32;69.80;99317.97;5280786;27;20058;-78
2022/10/28 10:50:46;;;;;;;15.75;8.18;;;;;;;20.60;70.50;99322.34;5268297;27;20085;-83
2022/10/28 10:53:22;;;;;;;18.12;9.38;;;;;;;21.65;65.31;99325.91;5264585;27;20054;-83
2022/10/28 10:56:00;;;;;;;20.00;9.50;;;;;;;21.49;65.80;99320.03;5265713;26;20037;-83
2022/10/28 10:58:32;;;;;;;16.92;9.38;;;;;;;21.36;66.77;99325.25;5284697;27;20072;-83
2022/10/28 11:01:02;;;;;;;18.30;9.43;;;;;;;21.80;65.03;99324.03;5288901;27;20044;-83
2022/10/28 11:03:53;;;;;;;17.27;9.43;;;;;;;21.57;65.43;99325.59;5270316;27;20052;-83
2022/10/28 11:06:27;;;;;;;14.70;7.57;;;;;;;23.18;60.41;99323.84;5287734;27;20084;-83
2022/10/28 11:08:56;;;;;;;15.13;8.52;;;;;;;23.34;58.94;99323.50;5269991;27;20057;-83
2022/10/28 11:11:32;;;;;;;19.33;9.77;;;;;;;23.01;60.14;99319.81;5280851;27;20067;-84
2022/10/28 11:14:19;;;;;;;18.53;9.07;;;;;;;22.58;61.33;99322.06;5263546;27;20067;-83
2022/10/28 11:16:50;;;;;;;16.55;9.75;;;;;;;22.00;64.74;99327.91;5264350;27;20048;-83
2022/10/28 11:19:34;;;;;;;15.95;8.93;;;;;;;22.77;61.34;99324.19;5280483;27;20471;-83
2022/10/28 11:22:35;;;;;;;16.20;8.82;;;;;;;22.12;62.62;99327.94;5259188;27;20106;-83
2022/10/28 11:25:24;;;;;;;16.20;8.38;;;;;;;22.43;62.67;99321.34;5283728;27;20064;-80
2022/10/28 11:28:15;;;;;;;20.10;10.23;;;;;;;22.29;63.02;99321.50;5283639;27;20042;-80
2022/10/28 11:31:07;;;;;;;17.33;9.27;;;;;;;22.01;64.26;99325.19;5278540;27;20068;-80
2022/10/28 11:33:47;;;;;;;17.20;9.55;;;;;;;21.57;65.29;99322.97;5283815;27;20453;-80
2022/10/28 11:36:39;;;;;;;17.77;9.52;;;;;;;22.17;63.39;99311.84;5284386;27;20053;-80
2022/10/28 11:39:26;;;;;;;18.02;9.90;;;;;;;22.06;63.55;99301.22;5259750;27;20053;-80